CheckWX is a tool to help pilots better visualize weather data.  It is not intended as a substitute for an official pre-flight weather briefing.

06:06:53 UTC

KOGD TAF
Ogden-Hinckley Airport
Ogden, Utah, USA
KOGD 260520Z 2606/2706 03006KT P6SM SCT080 BKN150 FM260800 17008KT P6SM SCT150 FM261800 18015G25KT P6SM SCT200

Jun-26@
06:00 UTC

Jun-26 @ 06:00 UTC

Jun-26@
08:00 UTC

Jun-26 @ 08:00 UTC

KOGD 260520Z 2606/2706 03006KT P6SM SCT080 BKN150
Wind
  • 030° at 6 KTS
Cloud Levels
  • Scattered at 8,000' AGL
  • Broken at 15,000' AGL

Jun-26@
08:00 UTC

Jun-26 @ 08:00 UTC

Jun-26@
18:00 UTC

Jun-26 @ 18:00 UTC

FM260800 17008KT P6SM SCT150

From

From Standard forecast or significant change

Wind
  • 170° at 8 KTS
Cloud Levels
  • Scattered at 15,000' AGL

Jun-26@
18:00 UTC

Jun-26 @ 18:00 UTC

Jun-27@
06:00 UTC

Jun-27 @ 06:00 UTC

FM261800 18015G25KT P6SM SCT200

From

From Standard forecast or significant change

Wind
  • 180° at 15 KTS
  • {Gusting to 25 KTS
Cloud Levels
  • Scattered at 20,000' AGL